Time;durP1;ratioP1;P1;durP2;ratioP2;P2;SDS_P1;SDS_P2;PMS_P1;PMS_P2;Temp;Humidity;BMP_temperature;BMP_pressure;BME280_temperature;BME280_humidity;BME280_pressure;Samples;Min_cycle;Max_cycle;Signal;HPM_P1;HPM_P2
2022/09/17 00:00:57;;;;;;;3.10;2.50;;;;;;;9.95;74.12;98892.16;130459;1268;107600;-72
2022/09/17 00:04:09;;;;;;;3.50;2.10;;;;;;;9.92;74.28;98893.27;130367;1268;109147;-71
2022/09/17 00:07:15;;;;;;;3.60;2.40;;;;;;;9.91;74.11;98894.13;130340;1268;109048;-71
2022/09/17 00:10:22;;;;;;;5.10;2.70;;;;;;;9.91;74.27;98896.95;130276;1268;108968;-72
2022/09/17 00:13:27;;;;;;;4.40;2.40;;;;;;;9.92;74.12;98897.70;130302;1268;108626;-72
2022/09/17 00:16:34;;;;;;;3.20;2.40;;;;;;;9.92;74.27;98898.52;130322;1268;108997;-71
2022/09/17 00:19:40;;;;;;;3.70;2.60;;;;;;;9.92;74.06;98900.20;130261;1268;108959;-72
2022/09/17 00:22:46;;;;;;;3.70;2.60;;;;;;;9.89;74.38;98896.44;130425;1268;108718;-71
2022/09/17 00:25:51;;;;;;;3.60;2.60;;;;;;;9.86;74.43;98897.41;130435;1268;109696;-70
2022/09/17 00:28:58;;;;;;;3.50;2.10;;;;;;;9.82;74.58;98899.41;130312;1268;109547;-70
2022/09/17 00:32:03;;;;;;;3.90;2.10;;;;;;;9.79;74.35;98897.23;130116;1268;108244;-70
2022/09/17 00:35:10;;;;;;;3.50;2.50;;;;;;;9.76;74.53;98893.10;130445;1268;108569;-71
2022/09/17 00:38:15;;;;;;;3.00;2.30;;;;;;;9.77;74.85;98892.98;130437;1268;108965;-72
2022/09/17 00:41:24;;;;;;;4.10;2.60;;;;;;;9.80;74.78;98895.69;130516;1268;109051;-72
2022/09/17 00:44:47;;;;;;;4.00;2.90;;;;;;;9.80;74.78;98899.56;130415;1268;106986;-72
2022/09/17 00:47:58;;;;;;;3.30;2.60;;;;;;;9.78;74.87;98901.84;130464;1268;108981;-73
2022/09/17 00:51:05;;;;;;;3.80;2.10;;;;;;;9.76;75.11;98902.52;130507;1268;108760;-72
2022/09/17 00:54:12;;;;;;;5.30;2.60;;;;;;;9.72;74.87;98906.38;130362;1268;108448;-71
2022/09/17 00:57:18;;;;;;;3.00;1.80;;;;;;;9.68;75.19;98905.34;130227;1268;109823;-73
2022/09/17 01:00:25;;;;;;;3.90;2.40;;;;;;;9.68;75.12;98909.27;128993;1268;1795748;-70
2022/09/17 01:03:32;;;;;;;3.70;2.20;;;;;;;9.69;75.18;98908.59;130456;1268;109005;-72
2022/09/17 01:06:45;;;;;;;3.70;2.40;;;;;;;9.70;75.02;98908.44;130400;1268;108937;-74
2022/09/17 01:09:57;;;;;;;3.70;2.30;;;;;;;9.70;75.18;98904.85;130469;1268;109049;-72
2022/09/17 01:13:19;;;;;;;5.10;2.40;;;;;;;9.67;75.24;98907.67;130353;1268;108502;-71
2022/09/17 01:16:34;;;;;;;5.10;2.80;;;;;;;9.67;75.44;98911.14;130381;1268;108753;-72
2022/09/17 01:20:16;;;;;;;4.10;2.70;;;;;;;9.63;75.47;98909.19;130434;1268;108952;-72
2022/09/17 01:23:45;;;;;;;4.40;2.40;;;;;;;9.58;75.69;98906.77;130378;1268;108792;-71
2022/09/17 01:27:24;;;;;;;3.20;2.20;;;;;;;9.55;75.60;98904.55;130315;1268;109780;-72
2022/09/17 01:30:57;;;;;;;4.50;2.80;;;;;;;9.55;75.77;98904.66;130369;1268;108692;-73
2022/09/17 01:34:11;;;;;;;5.10;2.50;;;;;;;9.56;75.71;98905.06;130246;1268;108568;-73
2022/09/17 01:37:25;;;;;;;3.70;2.70;;;;;;;9.59;75.77;98904.80;130396;1268;108884;-72
2022/09/17 01:40:36;;;;;;;3.80;2.90;;;;;;;9.58;75.72;98907.71;130365;1268;108796;-72
2022/09/17 01:43:52;;;;;;;5.10;3.10;;;;;;;9.57;75.84;98904.98;130440;1268;108791;-73
2022/09/17 01:47:04;;;;;;;5.50;3.20;;;;;;;9.55;75.93;98906.34;130415;1268;108683;-71
2022/09/17 01:50:13;;;;;;;4.30;2.80;;;;;;;9.50;76.08;98909.21;130285;1267;108516;-72
2022/09/17 01:53:22;;;;;;;2.80;2.10;;;;;;;9.47;76.19;98901.95;130416;1267;108654;-72
2022/09/17 01:56:33;;;;;;;3.50;2.60;;;;;;;9.46;76.29;98901.69;130434;1268;107578;-72
2022/09/17 01:59:43;;;;;;;3.10;2.40;;;;;;;9.48;76.32;98900.54;130375;1268;108443;-71
2022/09/17 02:02:53;;;;;;;3.90;3.00;;;;;;;9.50;76.08;98902.80;130366;1267;109993;-71
2022/09/17 02:06:05;;;;;;;3.90;2.70;;;;;;;9.51;76.43;98900.05;130442;1268;108865;-72
2022/09/17 02:09:16;;;;;;;3.50;2.80;;;;;;;9.50;76.63;98904.02;130460;1268;108712;-71
2022/09/17 02:12:28;;;;;;;3.10;2.60;;;;;;;9.49;76.35;98900.84;130361;1268;109050;-73
2022/09/17 02:15:37;;;;;;;4.70;2.40;;;;;;;9.43;76.44;98898.82;130304;1268;108830;-74
2022/09/17 02:18:49;;;;;;;3.20;2.30;;;;;;;9.39;76.64;98898.74;130371;1267;108782;-73
2022/09/17 02:22:02;;;;;;;2.90;2.40;;;;;;;9.38;76.76;98892.98;130433;1268;107675;-73
2022/09/17 02:25:15;;;;;;;3.80;2.50;;;;;;;9.38;76.58;98896.70;130403;1268;108652;-73
2022/09/17 02:28:27;;;;;;;4.00;2.80;;;;;;;9.41;76.61;98899.40;130426;1268;109212;-74
2022/09/17 02:31:33;;;;;;;3.40;2.30;;;;;;;9.40;76.75;98894.28;130395;1267;107792;-72
2022/09/17 02:34:39;;;;;;;3.80;2.50;;;;;;;9.39;76.86;98896.21;130338;1268;108963;-74
2022/09/17 02:37:45;;;;;;;4.50;2.60;;;;;;;9.34;76.69;98897.55;130450;1268;108648;-73
2022/09/17 02:40:55;;;;;;;3.40;2.40;;;;;;;9.27;76.80;98897.45;130316;1268;108735;-73
2022/09/17 02:44:10;;;;;;;3.70;2.10;;;;;;;9.22;76.99;98896.42;130376;1267;108665;-73
2022/09/17 02:47:43;;;;;;;3.20;2.20;;;;;;;9.23;77.00;98891.77;130394;1268;108678;-71
2022/09/17 02:51:05;;;;;;;3.40;2.20;;;;;;;9.24;76.94;98885.95;130357;1267;109450;-71
2022/09/17 02:54:16;;;;;;;;;;;;;;;9.25;77.03;98889.34;130342;1267;108856;-74
2022/09/17 02:57:30;;;;;;;6.30;2.50;;;;;;;9.23;76.86;98888.30;130346;1268;107287;-71
2022/09/17 03:00:36;;;;;;;3.10;2.40;;;;;;;9.19;77.07;98890.98;130334;1268;108590;-71
2022/09/17 03:03:45;;;;;;;3.90;2.40;;;;;;;9.14;77.04;98887.95;130337;1267;110213;-73
2022/09/17 03:06:53;;;;;;;3.10;2.00;;;;;;;9.11;77.18;98894.71;130425;1267;108469;-71
2022/09/17 03:09:59;;;;;;;4.00;1.90;;;;;;;9.06;77.13;98896.13;130390;1266;108844;-71
2022/09/17 03:13:04;;;;;;;3.10;2.30;;;;;;;9.02;77.27;98890.33;130334;1267;109708;-72
2022/09/17 03:16:10;;;;;;;4.90;2.20;;;;;;;9.04;77.33;98893.95;130285;1268;108708;-72
2022/09/17 03:19:15;;;;;;;2.90;2.30;;;;;;;9.04;77.39;98894.01;130312;1267;108923;-70
2022/09/17 03:22:21;;;;;;;4.10;2.40;;;;;;;9.06;77.21;98892.27;130304;1268;108886;-73
2022/09/17 03:25:26;;;;;;;3.30;2.30;;;;;;;9.03;77.24;98887.94;130350;1267;108885;-72
2022/09/17 03:28:31;;;;;;;3.00;2.40;;;;;;;9.00;77.18;98882.23;130321;1267;109049;-72
2022/09/17 03:31:37;;;;;;;3.20;2.60;;;;;;;8.96;77.40;98883.06;130313;1267;108631;-71
2022/09/17 03:34:42;;;;;;;3.00;2.00;;;;;;;8.92;77.44;98883.06;130315;1267;108689;-72
2022/09/17 03:37:47;;;;;;;2.60;2.10;;;;;;;8.89;77.40;98881.29;130419;1268;109075;-73
2022/09/17 03:41:01;;;;;;;2.50;2.10;;;;;;;8.88;77.59;98881.88;130343;1267;108906;-73
2022/09/17 03:44:06;;;;;;;2.80;2.30;;;;;;;8.90;77.66;98884.01;130345;1267;107685;-74
2022/09/17 03:47:12;;;;;;;3.50;2.20;;;;;;;8.88;77.63;98879.18;130448;1268;109046;-73
2022/09/17 03:50:17;;;;;;;2.90;2.60;;;;;;;8.87;77.66;98871.17;130371;1267;108588;-72
2022/09/17 03:53:23;;;;;;;5.00;2.70;;;;;;;8.83;77.72;98874.33;130398;1268;109159;-76
2022/09/17 03:56:28;;;;;;;6.30;2.80;;;;;;;8.79;77.88;98876.75;130468;1267;108909;-73
2022/09/17 03:59:34;;;;;;;3.50;2.30;;;;;;;8.76;77.86;98872.25;130395;1267;108668;-72
2022/09/17 04:02:39;;;;;;;3.00;2.20;;;;;;;8.71;78.05;98872.31;130348;1268;108921;-71
2022/09/17 04:05:45;;;;;;;4.60;2.60;;;;;;;8.70;78.24;98868.73;130451;1268;108900;-72
2022/09/17 04:08:50;;;;;;;3.70;2.80;;;;;;;8.73;78.29;98866.05;130345;1268;108690;-72
2022/09/17 04:11:55;;;;;;;4.70;2.70;;;;;;;8.77;78.28;98866.13;130329;1268;108758;-74
2022/09/17 04:15:01;;;;;;;5.50;2.70;;;;;;;8.79;78.46;98868.00;130273;1268;108906;-72
2022/09/17 04:18:07;;;;;;;3.80;2.60;;;;;;;8.82;78.31;98869.69;130420;1268;108879;-72
2022/09/17 04:21:12;;;;;;;3.20;2.30;;;;;;;8.82;78.32;98873.17;130370;1268;108825;-72
2022/09/17 04:24:18;;;;;;;4.30;2.30;;;;;;;8.83;78.55;98875.23;130298;1268;108775;-70
2022/09/17 04:27:23;;;;;;;3.20;2.40;;;;;;;8.84;78.35;98875.76;130330;1268;108708;-74
2022/09/17 04:30:28;;;;;;;3.20;2.40;;;;;;;8.88;78.22;98876.96;130410;1268;108933;-75
2022/09/17 04:33:34;;;;;;;3.30;2.50;;;;;;;8.92;78.24;98876.80;130238;1268;108825;-72
2022/09/17 04:36:39;;;;;;;5.40;2.90;;;;;;;8.95;78.31;98875.83;130258;1268;108902;-72
2022/09/17 04:39:44;;;;;;;3.60;2.30;;;;;;;8.98;78.38;98880.19;130380;1268;108833;-75
2022/09/17 04:42:51;;;;;;;3.00;2.60;;;;;;;9.01;78.38;98878.80;130427;1268;108726;-73
2022/09/17 04:45:57;;;;;;;2.70;2.30;;;;;;;9.03;78.47;98876.27;130378;1268;108766;-73
2022/09/17 04:49:03;;;;;;;4.50;2.30;;;;;;;9.10;78.53;98882.60;130317;1268;108754;-73
2022/09/17 04:52:08;;;;;;;3.40;2.50;;;;;;;9.24;78.84;98883.10;130441;1268;106860;-73
2022/09/17 04:55:14;;;;;;;4.40;2.40;;;;;;;9.42;78.90;98884.38;130312;1268;109018;-72
2022/09/17 04:58:20;;;;;;;4.10;2.40;;;;;;;9.60;78.94;98877.88;130372;1268;108827;-74
2022/09/17 05:01:25;;;;;;;3.40;2.30;;;;;;;9.76;78.64;98883.05;130374;1268;108900;-74
2022/09/17 05:04:30;;;;;;;2.90;2.30;;;;;;;9.90;78.46;98885.30;130352;1268;109001;-76
2022/09/17 05:07:37;;;;;;;3.20;2.50;;;;;;;10.00;78.38;98882.09;130346;1268;108755;-74
2022/09/17 05:10:43;;;;;;;2.70;2.00;;;;;;;10.12;78.58;98884.34;130395;1268;108945;-72
2022/09/17 05:13:49;;;;;;;3.80;2.10;;;;;;;10.21;78.76;98885.16;130307;1268;108528;-73
2022/09/17 05:16:54;;;;;;;2.30;2.00;;;;;;;10.29;78.56;98882.09;130316;1268;109133;-73
2022/09/17 05:20:00;;;;;;;5.50;2.30;;;;;;;10.37;78.38;98877.77;130405;1267;108731;-74
2022/09/17 05:23:06;;;;;;;2.90;2.00;;;;;;;10.47;78.43;98880.29;130331;1268;108733;-72
2022/09/17 05:26:11;;;;;;;3.80;2.00;;;;;;;10.56;78.04;98878.33;130316;1268;108876;-73
2022/09/17 05:29:17;;;;;;;3.90;2.10;;;;;;;10.63;78.15;98876.91;130418;1267;108728;-73
2022/09/17 05:32:22;;;;;;;2.50;2.10;;;;;;;10.68;78.01;98874.58;130311;1267;108691;-72
2022/09/17 05:35:27;;;;;;;4.20;2.20;;;;;;;10.72;78.09;98874.53;130319;1268;108864;-71
2022/09/17 05:38:34;;;;;;;4.00;1.70;;;;;;;10.78;77.90;98875.44;130290;1268;108824;-73
2022/09/17 05:41:39;;;;;;;3.80;1.50;;;;;;;10.84;77.75;98870.41;130394;1268;109052;-71
2022/09/17 05:44:45;;;;;;;3.00;1.70;;;;;;;10.89;77.88;98872.27;130398;1267;107679;-72
2022/09/17 05:47:56;;;;;;;3.20;1.90;;;;;;;10.96;77.64;98870.20;130443;1267;108843;-72
2022/09/17 05:51:01;;;;;;;2.40;1.70;;;;;;;11.05;77.79;98871.77;130372;1267;108989;-72
2022/09/17 05:54:07;;;;;;;2.50;1.90;;;;;;;11.14;78.08;98872.44;130372;1268;108722;-72
2022/09/17 05:57:14;;;;;;;2.80;1.70;;;;;;;11.23;77.62;98866.73;130380;1267;108878;-71
2022/09/17 06:00:20;;;;;;;2.90;1.90;;;;;;;11.32;77.72;98858.58;130328;1268;108953;-71
2022/09/17 06:03:25;;;;;;;2.80;1.80;;;;;;;11.42;77.65;98861.64;130409;1265;109556;-72
2022/09/17 06:06:31;;;;;;;2.30;1.60;;;;;;;11.45;77.31;98858.48;130386;1267;108578;-72
2022/09/17 06:09:37;;;;;;;3.80;1.90;;;;;;;11.41;77.50;98859.25;130235;1268;108966;-72
2022/09/17 06:12:42;;;;;;;2.50;1.90;;;;;;;11.44;77.57;98859.52;130350;1267;108579;-73
2022/09/17 06:15:52;;;;;;;3.30;1.80;;;;;;;11.50;77.30;98856.52;130389;1267;108641;-73
2022/09/17 06:18:58;;;;;;;2.50;2.00;;;;;;;11.57;77.15;98858.52;130485;1268;108540;-73
2022/09/17 06:22:04;;;;;;;2.40;1.70;;;;;;;11.62;76.94;98865.45;130410;1267;108727;-73
2022/09/17 06:25:10;;;;;;;5.00;1.90;;;;;;;11.63;76.80;98862.75;130395;1267;108586;-70
2022/09/17 06:28:16;;;;;;;3.40;1.90;;;;;;;11.67;76.91;98863.17;130315;1267;108693;-74
2022/09/17 06:31:21;;;;;;;4.00;1.90;;;;;;;11.80;76.76;98863.98;130355;1268;109243;-72
2022/09/17 06:34:27;;;;;;;4.80;1.80;;;;;;;11.90;76.57;98858.52;130341;1268;108681;-71
2022/09/17 06:37:35;;;;;;;3.90;1.90;;;;;;;11.99;76.61;98852.90;130442;1267;108718;-76
2022/09/17 06:40:40;;;;;;;3.70;1.70;;;;;;;12.06;76.52;98857.64;130493;1267;109126;-78
2022/09/17 06:43:46;;;;;;;2.80;1.70;;;;;;;12.22;76.58;98860.98;130431;1268;108830;-72
2022/09/17 06:46:51;;;;;;;4.60;1.90;;;;;;;12.41;76.47;98856.36;130382;1268;108582;-74
2022/09/17 06:49:58;;;;;;;3.20;2.00;;;;;;;12.52;76.23;98864.73;130436;1267;108715;-75
2022/09/17 06:53:04;;;;;;;2.10;1.60;;;;;;;12.63;75.81;98862.27;130462;1267;108705;-73
2022/09/17 06:56:10;;;;;;;3.20;1.90;;;;;;;12.79;75.90;98865.89;130469;1268;108682;-76
2022/09/17 06:59:16;;;;;;;1.80;1.50;;;;;;;12.91;75.49;98859.82;130426;1267;108782;-77
2022/09/17 07:02:22;;;;;;;2.90;1.50;;;;;;;13.01;75.50;98860.34;130399;1268;108928;-77
2022/09/17 07:05:29;;;;;;;2.90;1.70;;;;;;;13.04;75.47;98866.24;130413;1267;109520;-75
2022/09/17 07:08:35;;;;;;;6.00;2.10;;;;;;;13.02;75.32;98865.58;130348;1268;108839;-76
2022/09/17 07:11:40;;;;;;;2.30;1.40;;;;;;;12.97;75.62;98872.16;130403;1267;108745;-76
2022/09/17 07:14:46;;;;;;;3.10;1.50;;;;;;;13.05;75.82;98878.43;130291;1268;108805;-74
2022/09/17 07:17:52;;;;;;;2.30;1.50;;;;;;;13.13;75.39;98883.27;130137;1268;108741;-73
2022/09/17 07:20:59;;;;;;;2.50;1.70;;;;;;;13.14;75.37;98888.64;130348;1268;108664;-73
2022/09/17 07:24:05;;;;;;;2.80;1.80;;;;;;;13.15;75.30;98886.20;130508;1267;108879;-71
2022/09/17 07:27:10;;;;;;;2.40;1.50;;;;;;;13.15;75.41;98891.27;130342;1268;108674;-73
2022/09/17 07:30:16;;;;;;;3.90;1.50;;;;;;;13.20;75.37;98892.71;130461;1267;108734;-74
2022/09/17 07:33:24;;;;;;;3.30;1.70;;;;;;;13.27;75.26;98892.77;130425;1267;108929;-71
2022/09/17 07:36:29;;;;;;;3.70;1.90;;;;;;;13.28;75.21;98891.08;130195;1267;108742;-73
2022/09/17 07:39:35;;;;;;;2.70;1.80;;;;;;;13.26;74.99;98889.73;130413;1267;108745;-72
2022/09/17 07:42:40;;;;;;;3.30;1.70;;;;;;;13.30;75.23;98885.45;130357;1267;108741;-73
2022/09/17 07:45:45;;;;;;;3.80;1.80;;;;;;;13.40;75.06;98884.71;130420;1267;108956;-72
2022/09/17 07:48:51;;;;;;;2.90;1.60;;;;;;;13.53;75.35;98880.09;130297;1267;109050;-71
2022/09/17 07:51:56;;;;;;;2.40;1.60;;;;;;;13.66;75.03;98880.98;130469;1267;109001;-74
2022/09/17 07:55:01;;;;;;;2.70;1.60;;;;;;;13.63;74.47;98882.60;130425;1266;108673;-71
2022/09/17 07:58:07;;;;;;;2.90;1.60;;;;;;;13.59;74.57;98880.65;130376;1267;108954;-72
2022/09/17 08:01:15;;;;;;;2.40;1.60;;;;;;;13.65;74.67;98881.53;130392;1267;108765;-73
2022/09/17 08:04:21;;;;;;;2.50;1.60;;;;;;;13.68;74.60;98877.90;130400;1267;107893;-73
2022/09/17 08:07:26;;;;;;;3.00;1.70;;;;;;;13.71;74.57;98879.05;130473;1267;108910;-72
2022/09/17 08:10:32;;;;;;;1.80;1.40;;;;;;;13.71;74.66;98882.76;130379;1267;108941;-72
2022/09/17 08:13:38;;;;;;;2.70;1.40;;;;;;;13.73;74.45;98892.70;130276;1267;108587;-73
2022/09/17 08:16:45;;;;;;;2.30;1.50;;;;;;;13.69;74.38;98903.41;130373;1267;108679;-70
2022/09/17 08:19:50;;;;;;;1.80;1.20;;;;;;;13.58;74.58;98910.60;130271;1267;108953;-72
2022/09/17 08:23:01;;;;;;;2.00;1.40;;;;;;;13.52;74.57;98925.19;130160;1267;108889;-69
2022/09/17 08:26:08;;;;;;;2.60;1.60;;;;;;;13.42;74.69;98927.86;130343;1267;108936;-72
2022/09/17 08:29:13;;;;;;;1.60;1.20;;;;;;;13.40;74.74;98919.40;130879;1267;108443;-73
2022/09/17 08:32:19;;;;;;;1.60;1.30;;;;;;;13.33;74.68;98922.02;130634;1267;108916;-70
2022/09/17 08:35:26;;;;;;;2.50;1.50;;;;;;;13.29;74.59;98920.32;130611;1268;108422;-72
2022/09/17 08:38:34;;;;;;;2.90;1.60;;;;;;;13.31;74.57;98919.09;130377;1268;109113;-70
2022/09/17 08:41:52;;;;;;;3.10;1.70;;;;;;;13.37;74.70;98918.30;130421;1268;108783;-73
2022/09/17 08:44:59;;;;;;;1.70;1.50;;;;;;;13.45;74.40;98915.03;130827;1267;108794;-72
2022/09/17 08:48:05;;;;;;;2.10;1.50;;;;;;;13.42;74.40;98916.23;130372;1268;108568;-72
2022/09/17 08:51:26;;;;;;;2.10;1.40;;;;;;;13.46;74.70;98919.83;131083;1267;108798;-72
2022/09/17 08:54:38;;;;;;;1.50;1.40;;;;;;;13.57;74.74;98918.52;130816;1268;108729;-74
2022/09/17 08:57:52;;;;;;;1.90;1.40;;;;;;;13.64;74.71;98919.17;130784;1267;108677;-72
2022/09/17 09:01:04;;;;;;;1.90;1.30;;;;;;;13.66;74.84;98924.40;130389;1267;108965;-71
2022/09/17 09:04:36;;;;;;;1.40;1.30;;;;;;;13.64;75.05;98926.59;130375;1268;108758;-71
2022/09/17 09:07:45;;;;;;;1.60;1.30;;;;;;;13.77;75.10;98931.30;130487;1267;108766;-72
2022/09/17 09:10:55;;;;;;;1.50;1.30;;;;;;;13.89;75.06;98932.86;130554;1268;108815;-71
2022/09/17 09:14:08;;;;;;;2.10;1.40;;;;;;;13.96;74.75;98923.50;130443;1267;109571;-72
2022/09/17 09:17:15;;;;;;;2.20;1.40;;;;;;;14.02;74.99;98919.20;130923;1268;108750;-72
2022/09/17 09:20:31;;;;;;;2.20;1.50;;;;;;;14.24;75.11;98917.17;130729;1268;107671;-74
2022/09/17 09:23:49;;;;;;;2.30;1.70;;;;;;;14.58;74.97;98915.45;130609;1267;108702;-71
2022/09/17 09:27:10;;;;;;;2.00;1.50;;;;;;;14.86;74.60;98915.10;130361;1268;108684;-73
2022/09/17 09:30:22;;;;;;;1.70;1.60;;;;;;;14.96;73.66;98916.30;130477;1268;108683;-76
2022/09/17 09:33:31;;;;;;;1.80;1.50;;;;;;;14.85;74.04;98911.92;130410;1267;108763;-74
2022/09/17 09:36:40;;;;;;;3.00;2.40;;;;;;;14.94;74.14;98907.92;130714;1267;108682;-77
2022/09/17 09:39:49;;;;;;;2.70;2.50;;;;;;;14.89;73.39;98912.36;130486;1267;108663;-76
2022/09/17 09:43:00;;;;;;;2.90;2.60;;;;;;;14.79;73.71;98909.02;130379;1268;108843;-75
2022/09/17 09:46:31;;;;;;;2.60;2.30;;;;;;;14.74;73.29;98907.64;130449;1268;108811;-77
2022/09/17 09:49:53;;;;;;;2.90;2.50;;;;;;;14.82;73.79;98900.20;130363;1267;108799;-76
2022/09/17 09:53:13;;;;;;;2.20;2.00;;;;;;;15.03;73.54;98894.44;130356;1268;107609;-73
2022/09/17 09:56:43;;;;;;;2.10;1.70;;;;;;;15.29;73.17;98893.83;130514;1267;108961;-75
2022/09/17 09:59:49;;;;;;;2.00;1.70;;;;;;;15.54;72.99;98901.41;130487;1268;109045;-72
2022/09/17 10:02:59;;;;;;;1.60;1.50;;;;;;;15.70;70.08;98899.20;130564;1267;108945;-72
2022/09/17 10:06:07;;;;;;;1.80;1.70;;;;;;;15.38;70.41;98901.55;130211;1268;108762;-72
2022/09/17 10:09:15;;;;;;;1.40;1.10;;;;;;;15.20;70.94;98907.73;130431;1267;108815;-73
2022/09/17 10:12:20;;;;;;;1.80;1.70;;;;;;;15.03;71.28;98914.11;130507;1268;109011;-73
2022/09/17 10:15:28;;;;;;;2.30;2.10;;;;;;;14.85;71.08;98917.50;130818;1267;108821;-73
2022/09/17 10:18:34;;;;;;;2.90;2.10;;;;;;;14.72;71.53;98920.41;131022;1267;108845;-74
2022/09/17 10:21:41;;;;;;;2.00;1.80;;;;;;;14.59;71.53;98929.48;130684;1268;108679;-74
2022/09/17 10:24:50;;;;;;;4.50;4.10;;;;;;;14.37;71.62;98938.41;130844;1268;108642;-76
2022/09/17 10:27:57;;;;;;;3.20;2.10;;;;;;;14.21;71.87;98944.05;130618;1267;108558;-77
2022/09/17 10:31:07;;;;;;;2.30;2.10;;;;;;;14.09;72.16;98951.30;130432;1268;108848;-75
2022/09/17 10:34:21;;;;;;;2.00;1.50;;;;;;;14.07;72.29;98953.90;130438;1268;107806;-73
2022/09/17 10:37:42;;;;;;;4.30;3.50;;;;;;;14.22;72.19;98953.34;130606;1267;107597;-73
2022/09/17 10:40:48;;;;;;;7.60;6.80;;;;;;;14.45;71.99;98957.19;130652;1268;108856;-75
2022/09/17 10:43:53;;;;;;;3.50;3.20;;;;;;;14.74;72.48;98959.36;130432;1268;108549;-72
2022/09/17 10:47:08;;;;;;;3.60;2.90;;;;;;;15.08;72.09;98961.17;130561;1267;109130;-72
2022/09/17 10:50:20;;;;;;;4.20;2.90;;;;;;;15.23;70.88;98967.73;130727;1268;108585;-75
2022/09/17 10:53:27;;;;;;;3.90;2.80;;;;;;;15.08;71.42;98963.60;130753;1268;109520;-70
2022/09/17 10:56:36;;;;;;;3.70;2.30;;;;;;;15.18;71.78;98969.38;130631;1268;109090;-76
2022/09/17 11:00:08;;;;;;;2.70;2.30;;;;;;;15.27;70.73;98966.65;130553;1267;107696;-70
2022/09/17 11:03:43;;;;;;;2.90;2.60;;;;;;;15.34;71.67;98958.74;130574;1267;108002;-73
2022/09/17 11:07:31;;;;;;;3.00;2.60;;;;;;;15.50;70.96;98953.59;130543;1267;108680;-71
2022/09/17 11:10:42;;;;;;;1.90;1.50;;;;;;;15.57;70.66;98952.23;129763;1274;108747;-75
2022/09/17 11:13:56;;;;;;;3.30;2.70;;;;;;;15.55;70.03;98954.73;130003;1273;108860;-71
2022/09/17 11:17:09;;;;;;;2.60;2.20;;;;;;;15.48;70.51;98956.97;130455;1268;108923;-72
2022/09/17 11:20:26;;;;;;;2.10;1.80;;;;;;;15.54;70.03;98948.58;130531;1267;108699;-72
2022/09/17 11:23:54;;;;;;;1.90;1.70;;;;;;;15.51;69.78;98944.30;130648;1267;108648;-77
2022/09/17 11:27:11;;;;;;;2.20;1.80;;;;;;;15.42;69.29;98939.30;130483;1268;108765;-71
2022/09/17 11:30:22;;;;;;;3.20;2.10;;;;;;;15.38;68.57;98944.91;130524;1268;108623;-73
2022/09/17 11:33:54;;;;;;;4.70;3.10;;;;;;;15.44;69.70;98946.85;130481;1268;108937;-74
2022/09/17 11:37:05;;;;;;;2.60;2.20;;;;;;;15.48;69.02;98950.27;130493;1267;108853;-71
2022/09/17 11:40:17;;;;;;;1.80;1.60;;;;;;;15.56;69.26;98950.41;130361;1267;108770;-72
2022/09/17 11:43:28;;;;;;;1.50;1.30;;;;;;;15.84;69.85;98950.64;130637;1267;108889;-71
2022/09/17 11:46:39;;;;;;;1.50;1.40;;;;;;;16.14;68.94;98952.38;130753;1267;108655;-73
2022/09/17 11:49:51;;;;;;;1.30;1.10;;;;;;;16.13;66.91;98951.31;130336;1269;107182;-76
2022/09/17 11:53:04;;;;;;;2.00;1.30;;;;;;;15.87;67.34;98952.36;130698;1267;108726;-70
2022/09/17 11:56:21;;;;;;;1.20;1.10;;;;;;;15.67;67.82;98945.63;130480;1267;108881;-73
2022/09/17 11:59:35;;;;;;;2.30;2.10;;;;;;;15.53;68.22;98948.70;130530;1268;107726;-81
2022/09/17 12:02:51;;;;;;;3.60;2.90;;;;;;;15.36;68.23;98945.49;130359;1271;108608;-75
2022/09/17 12:06:01;;;;;;;1.60;1.50;;;;;;;15.22;68.95;98949.27;130668;1267;108937;-76
2022/09/17 12:09:14;;;;;;;2.40;2.20;;;;;;;15.12;68.95;98948.33;130418;1268;108737;-72
2022/09/17 12:12:23;;;;;;;13.30;9.00;;;;;;;15.17;69.39;98950.23;130531;1268;109052;-71
2022/09/17 12:15:33;;;;;;;3.10;2.10;;;;;;;15.25;68.71;98949.86;130376;1267;108568;-69
2022/09/17 12:18:53;;;;;;;2.30;2.00;;;;;;;15.15;68.69;98951.73;130107;1268;108821;-69
2022/09/17 12:22:04;;;;;;;2.20;1.70;;;;;;;15.07;68.80;98947.20;130361;1267;107766;-71
2022/09/17 12:25:14;;;;;;;3.40;2.30;;;;;;;15.05;68.73;98949.68;130415;1267;108790;-71
2022/09/17 12:28:26;;;;;;;1.90;1.50;;;;;;;15.07;68.78;98952.07;130485;1267;108812;-72
2022/09/17 12:31:38;;;;;;;3.20;1.70;;;;;;;14.95;68.65;98944.61;130496;1267;108762;-71
2022/09/17 12:34:56;;;;;;;1.70;1.40;;;;;;;15.00;69.02;98940.29;130252;1267;108912;-73
2022/09/17 12:38:15;;;;;;;1.80;1.60;;;;;;;15.13;68.93;98938.15;130373;1268;108789;-75
2022/09/17 12:41:27;;;;;;;2.10;1.70;;;;;;;15.17;68.80;98934.41;130294;1269;108957;-75
2022/09/17 12:44:49;;;;;;;2.20;1.60;;;;;;;15.07;68.47;98936.16;130573;1267;109256;-76
2022/09/17 12:48:13;;;;;;;1.90;1.70;;;;;;;14.92;68.70;98936.08;130372;1269;107680;-72
2022/09/17 12:51:31;;;;;;;6.40;4.50;;;;;;;14.87;69.23;98939.52;130509;1268;108921;-73
2022/09/17 12:54:53;;;;;;;5.50;4.00;;;;;;;15.05;69.41;98943.73;130494;1267;108857;-74
2022/09/17 12:58:07;;;;;;;4.60;2.80;;;;;;;15.19;69.19;98934.90;130355;1268;109111;-72
2022/09/17 13:01:19;;;;;;;4.40;2.70;;;;;;;15.27;69.37;98934.44;128947;1268;1812782;-71
2022/09/17 13:04:40;;;;;;;;;;;;;;;15.30;69.13;98930.20;130586;1268;108919;-71
2022/09/17 13:08:09;;;;;;;2.90;2.60;;;;;;;15.21;69.35;98929.19;130552;1268;108457;-71
2022/09/17 13:11:52;;;;;;;4.80;2.20;;;;;;;15.00;69.33;98929.46;130419;1268;109370;-72
2022/09/17 13:15:16;;;;;;;2.20;2.00;;;;;;;14.81;69.79;98930.92;130512;1268;109170;-71
2022/09/17 13:18:27;;;;;;;2.30;2.00;;;;;;;14.85;69.96;98936.64;130516;1268;108806;-74
2022/09/17 13:21:40;;;;;;;3.00;2.30;;;;;;;14.97;69.98;98940.25;130167;1270;108607;-72
2022/09/17 13:24:48;;;;;;;3.70;2.60;;;;;;;15.11;69.92;98938.13;130374;1268;109575;-75
2022/09/17 13:28:07;;;;;;;3.30;2.70;;;;;;;15.12;69.86;98943.80;130502;1268;108924;-76
2022/09/17 13:31:14;;;;;;;3.10;2.80;;;;;;;14.97;69.72;98943.81;130554;1268;108601;-74
2022/09/17 13:34:34;;;;;;;4.00;3.20;;;;;;;14.73;70.05;98938.00;130533;1268;108726;-72
2022/09/17 13:37:42;;;;;;;2.60;2.30;;;;;;;14.58;70.49;98938.04;130676;1269;108555;-74
2022/09/17 13:40:48;;;;;;;9.90;5.80;;;;;;;14.50;70.51;98947.70;130706;1268;108493;-72
2022/09/17 13:43:54;;;;;;;6.50;5.20;;;;;;;14.49;70.76;98946.64;130750;1268;108812;-74
2022/09/17 13:47:13;;;;;;;10.70;7.80;;;;;;;14.56;70.84;98943.54;130609;1268;107740;-73
2022/09/17 13:50:27;;;;;;;5.40;3.50;;;;;;;14.77;70.97;98937.13;130195;1268;108615;-73
2022/09/17 13:53:37;;;;;;;3.90;3.30;;;;;;;15.01;70.84;98930.77;130823;1268;108978;-78
2022/09/17 13:56:45;;;;;;;3.40;2.70;;;;;;;15.21;70.65;98930.41;130630;1268;108885;-77
2022/09/17 13:59:57;;;;;;;5.00;2.50;;;;;;;15.35;70.58;98932.81;130480;1267;109427;-75
2022/09/17 14:03:35;;;;;;;3.30;3.00;;;;;;;15.40;70.41;98929.06;130622;1268;109061;-76
2022/09/17 14:06:53;;;;;;;3.20;2.40;;;;;;;15.46;70.38;98927.61;130491;1268;107662;-74
2022/09/17 14:10:00;;;;;;;3.10;2.60;;;;;;;15.54;70.29;98924.17;130550;1268;109028;-72
2022/09/17 14:13:38;;;;;;;4.30;2.50;;;;;;;15.50;70.38;98920.35;130634;1267;108721;-72
2022/09/17 14:16:51;;;;;;;2.70;2.30;;;;;;;15.51;70.42;98917.45;130602;1268;109235;-76
2022/09/17 14:19:57;;;;;;;2.60;2.40;;;;;;;15.45;70.41;98919.69;130483;1268;108877;-75
2022/09/17 14:23:03;;;;;;;2.90;2.50;;;;;;;15.34;70.16;98920.80;130597;1268;108822;-75
2022/09/17 14:26:17;;;;;;;3.50;2.50;;;;;;;15.27;70.47;98920.20;130549;1267;108636;-74
2022/09/17 14:29:40;;;;;;;2.50;2.20;;;;;;;15.33;70.59;98917.61;130540;1267;108926;-72
2022/09/17 14:32:52;;;;;;;4.50;2.30;;;;;;;15.36;70.65;98912.42;130583;1267;107279;-72
2022/09/17 14:36:08;;;;;;;4.10;2.30;;;;;;;15.39;70.59;98919.68;130651;1267;108701;-72
2022/09/17 14:39:20;;;;;;;3.10;2.60;;;;;;;15.44;70.51;98918.45;130372;1269;108767;-72